メインページ
METAR-TAF:

METAR-TAF

空港 :

ソフィア空港

ソフィア, ブルガリア

緯度: 42-39N, 経度: 023-23E, 海抜: 586m

現時点の気象観測

当レポートは34分前の06:30(UTC)に作成
西/北西の風 3kt、西からの間で変化する
気温 6°C
湿度 70%
気圧 1023 hPa
視程10km以上
1,500メートル以下は雲なし、積乱雲なし

METAR: LBSF 240630Z 30003KT 270V350 CAVOK 06/01 Q1023 NOSIG

時間: 09:04 (07:04 UTC)

予報

当レポートは2時間4分前の05:00(UTC)に作成
予報は24日の 06時(UTC)から 25日の 06時(UTC)まで有効
変向風 4kt
視程10km以上
1,500メートル以下は雲なし、積乱雲なし
24日の 10時(UTC)から 24日の 12時(UTC)まで徐々に
東/北東の風 10kt
24日の 18時(UTC)から 24日の 20時(UTC)まで徐々に
変向風 4kt
25日の 02時(UTC)から 25日の 06時(UTC)まで一時的に
視程: 4000m

TAF: LBSF 240500Z 2406/2506 VRB04KT CAVOK BECMG 2410/2412 06010KT BECMG 2418/2420 VRB04KT TEMPO 2502/2506 4000 BR

4,000以上の空港の気象観測と天気予報(METAR報とTAF報)

利用可能な観測所は地図上に黄色い丸と赤い丸で示す。

丸の上にカーソルを重ねると観測所名を参照できる。

次にクリックすると気象観測と天気予報を参照できる。

マップの切り替え:黒色「×」印の緑ボタンをクリックして拡大、「-」印の緑ボタンをクリックして縮小、緑色の三角印をクリックして隣りの地図に切り替え


METAR-TAF: